sensor_id;sensor_type;location;lat;lon;timestamp;P1;durP1;ratioP1;P2;durP2;ratioP2
4686;SDS011;2357;47.316;-1.348;2023-02-11T00:00:05;8.97;;;5.30;;
4686;SDS011;2357;47.316;-1.348;2023-02-11T00:02:32;11.27;;;5.70;;
4686;SDS011;2357;47.316;-1.348;2023-02-11T00:04:58;10.90;;;5.23;;
4686;SDS011;2357;47.316;-1.348;2023-02-11T00:07:27;8.13;;;5.00;;
4686;SDS011;2357;47.316;-1.348;2023-02-11T00:09:53;6.30;;;4.93;;
4686;SDS011;2357;47.316;-1.348;2023-02-11T00:12:19;8.20;;;4.13;;
4686;SDS011;2357;47.316;-1.348;2023-02-11T00:14:45;10.00;;;5.63;;
4686;SDS011;2357;47.316;-1.348;2023-02-11T00:17:10;8.73;;;4.90;;
4686;SDS011;2357;47.316;-1.348;2023-02-11T00:19:36;5.70;;;4.67;;
4686;SDS011;2357;47.316;-1.348;2023-02-11T00:22:01;5.47;;;4.63;;
4686;SDS011;2357;47.316;-1.348;2023-02-11T00:24:27;8.17;;;4.47;;
4686;SDS011;2357;47.316;-1.348;2023-02-11T00:26:54;8.73;;;5.03;;
4686;SDS011;2357;47.316;-1.348;2023-02-11T00:29:19;8.77;;;5.60;;
4686;SDS011;2357;47.316;-1.348;2023-02-11T00:31:45;6.63;;;4.83;;
4686;SDS011;2357;47.316;-1.348;2023-02-11T00:34:11;6.03;;;3.97;;
4686;SDS011;2357;47.316;-1.348;2023-02-11T00:36:36;5.30;;;4.37;;
4686;SDS011;2357;47.316;-1.348;2023-02-11T00:39:02;8.23;;;5.23;;
4686;SDS011;2357;47.316;-1.348;2023-02-11T00:41:28;7.83;;;5.27;;
4686;SDS011;2357;47.316;-1.348;2023-02-11T00:43:54;8.60;;;5.20;;
4686;SDS011;2357;47.316;-1.348;2023-02-11T00:46:19;9.27;;;5.30;;
4686;SDS011;2357;47.316;-1.348;2023-02-11T00:48:45;6.83;;;5.70;;
4686;SDS011;2357;47.316;-1.348;2023-02-11T00:51:11;6.77;;;4.90;;
4686;SDS011;2357;47.316;-1.348;2023-02-11T00:53:37;10.43;;;5.33;;
4686;SDS011;2357;47.316;-1.348;2023-02-11T00:56:04;7.77;;;5.63;;
4686;SDS011;2357;47.316;-1.348;2023-02-11T00:58:30;6.97;;;4.80;;
4686;SDS011;2357;47.316;-1.348;2023-02-11T01:00:55;9.90;;;6.07;;
4686;SDS011;2357;47.316;-1.348;2023-02-11T01:03:21;6.73;;;6.03;;
4686;SDS011;2357;47.316;-1.348;2023-02-11T01:05:47;7.20;;;5.30;;
4686;SDS011;2357;47.316;-1.348;2023-02-11T01:08:13;7.27;;;4.90;;
4686;SDS011;2357;47.316;-1.348;2023-02-11T01:10:39;8.50;;;5.07;;
4686;SDS011;2357;47.316;-1.348;2023-02-11T01:13:04;5.03;;;4.00;;
4686;SDS011;2357;47.316;-1.348;2023-02-11T01:15:31;6.87;;;4.80;;
4686;SDS011;2357;47.316;-1.348;2023-02-11T01:17:57;5.10;;;4.60;;
4686;SDS011;2357;47.316;-1.348;2023-02-11T01:20:24;6.23;;;4.53;;
4686;SDS011;2357;47.316;-1.348;2023-02-11T01:22:51;5.57;;;4.33;;
4686;SDS011;2357;47.316;-1.348;2023-02-11T01:25:16;12.10;;;6.73;;
4686;SDS011;2357;47.316;-1.348;2023-02-11T01:27:42;7.43;;;5.07;;
4686;SDS011;2357;47.316;-1.348;2023-02-11T01:30:08;9.37;;;5.43;;
4686;SDS011;2357;47.316;-1.348;2023-02-11T01:32:36;6.17;;;5.23;;
4686;SDS011;2357;47.316;-1.348;2023-02-11T01:35:02;6.00;;;5.30;;
4686;SDS011;2357;47.316;-1.348;2023-02-11T01:37:27;6.80;;;5.40;;
4686;SDS011;2357;47.316;-1.348;2023-02-11T01:39:53;6.80;;;4.90;;
4686;SDS011;2357;47.316;-1.348;2023-02-11T01:42:20;8.93;;;6.20;;
4686;SDS011;2357;47.316;-1.348;2023-02-11T01:44:50;16.83;;;6.10;;
4686;SDS011;2357;47.316;-1.348;2023-02-11T01:47:18;16.67;;;7.73;;
4686;SDS011;2357;47.316;-1.348;2023-02-11T01:49:45;6.77;;;6.03;;
4686;SDS011;2357;47.316;-1.348;2023-02-11T01:52:22;6.43;;;4.93;;
4686;SDS011;2357;47.316;-1.348;2023-02-11T01:54:53;7.77;;;5.20;;
4686;SDS011;2357;47.316;-1.348;2023-02-11T01:57:42;9.03;;;6.40;;
4686;SDS011;2357;47.316;-1.348;2023-02-11T02:08:05;13.57;;;7.47;;
4686;SDS011;2357;47.316;-1.348;2023-02-11T02:10:41;11.33;;;6.87;;
4686;SDS011;2357;47.316;-1.348;2023-02-11T02:13:09;7.33;;;6.30;;
4686;SDS011;2357;47.316;-1.348;2023-02-11T02:15:36;8.47;;;6.63;;
4686;SDS011;2357;47.316;-1.348;2023-02-11T02:18:14;8.43;;;6.97;;
4686;SDS011;2357;47.316;-1.348;2023-02-11T02:37:27;11.77;;;7.73;;
4686;SDS011;2357;47.316;-1.348;2023-02-11T02:40:01;9.80;;;7.90;;
4686;SDS011;2357;47.316;-1.348;2023-02-11T02:42:31;12.00;;;8.07;;
4686;SDS011;2357;47.316;-1.348;2023-02-11T02:44:57;9.60;;;7.77;;
4686;SDS011;2357;47.316;-1.348;2023-02-11T02:47:23;12.37;;;9.00;;
4686;SDS011;2357;47.316;-1.348;2023-02-11T02:49:49;11.00;;;7.93;;
4686;SDS011;2357;47.316;-1.348;2023-02-11T02:57:50;12.27;;;9.20;;
4686;SDS011;2357;47.316;-1.348;2023-02-11T03:00:49;11.47;;;7.80;;
4686;SDS011;2357;47.316;-1.348;2023-02-11T03:03:35;12.30;;;7.83;;
4686;SDS011;2357;47.316;-1.348;2023-02-11T03:06:07;13.03;;;8.80;;
4686;SDS011;2357;47.316;-1.348;2023-02-11T03:08:55;17.17;;;9.17;;
4686;SDS011;2357;47.316;-1.348;2023-02-11T03:11:33;14.80;;;9.57;;
4686;SDS011;2357;47.316;-1.348;2023-02-11T03:14:01;12.93;;;8.77;;
4686;SDS011;2357;47.316;-1.348;2023-02-11T03:16:28;13.00;;;8.87;;
4686;SDS011;2357;47.316;-1.348;2023-02-11T03:19:04;11.83;;;7.27;;
4686;SDS011;2357;47.316;-1.348;2023-02-11T03:21:39;11.50;;;9.00;;
4686;SDS011;2357;47.316;-1.348;2023-02-11T03:24:09;13.63;;;7.50;;
4686;SDS011;2357;47.316;-1.348;2023-02-11T03:26:42;13.23;;;8.83;;
4686;SDS011;2357;47.316;-1.348;2023-02-11T03:29:17;12.20;;;8.97;;
4686;SDS011;2357;47.316;-1.348;2023-02-11T03:37:37;10.07;;;8.00;;
4686;SDS011;2357;47.316;-1.348;2023-02-11T03:40:18;13.20;;;8.47;;
4686;SDS011;2357;47.316;-1.348;2023-02-11T03:42:53;10.63;;;7.87;;
4686;SDS011;2357;47.316;-1.348;2023-02-11T03:45:27;12.30;;;8.20;;
4686;SDS011;2357;47.316;-1.348;2023-02-11T03:47:54;14.50;;;8.97;;
4686;SDS011;2357;47.316;-1.348;2023-02-11T03:50:25;10.50;;;8.20;;
4686;SDS011;2357;47.316;-1.348;2023-02-11T03:52:52;13.10;;;9.00;;
4686;SDS011;2357;47.316;-1.348;2023-02-11T03:55:19;13.13;;;8.60;;
4686;SDS011;2357;47.316;-1.348;2023-02-11T03:57:47;11.00;;;7.60;;
4686;SDS011;2357;47.316;-1.348;2023-02-11T04:00:13;9.73;;;7.40;;
4686;SDS011;2357;47.316;-1.348;2023-02-11T04:02:39;9.90;;;7.23;;
4686;SDS011;2357;47.316;-1.348;2023-02-11T04:05:07;9.47;;;7.70;;
4686;SDS011;2357;47.316;-1.348;2023-02-11T04:07:34;10.37;;;6.50;;
4686;SDS011;2357;47.316;-1.348;2023-02-11T04:09:59;10.77;;;7.77;;
4686;SDS011;2357;47.316;-1.348;2023-02-11T04:12:25;9.73;;;7.20;;
4686;SDS011;2357;47.316;-1.348;2023-02-11T04:14:50;8.77;;;6.60;;
4686;SDS011;2357;47.316;-1.348;2023-02-11T04:17:16;13.67;;;6.93;;
4686;SDS011;2357;47.316;-1.348;2023-02-11T04:19:42;7.27;;;5.97;;
4686;SDS011;2357;47.316;-1.348;2023-02-11T04:22:08;8.10;;;6.33;;
4686;SDS011;2357;47.316;-1.348;2023-02-11T04:24:34;7.20;;;6.30;;
4686;SDS011;2357;47.316;-1.348;2023-02-11T04:26:59;11.93;;;7.13;;
4686;SDS011;2357;47.316;-1.348;2023-02-11T04:29:25;11.70;;;6.30;;
4686;SDS011;2357;47.316;-1.348;2023-02-11T04:31:52;11.30;;;6.40;;
4686;SDS011;2357;47.316;-1.348;2023-02-11T04:34:19;8.10;;;6.70;;
4686;SDS011;2357;47.316;-1.348;2023-02-11T04:36:45;7.83;;;6.53;;
4686;SDS011;2357;47.316;-1.348;2023-02-11T04:39:11;5.80;;;5.27;;
4686;SDS011;2357;47.316;-1.348;2023-02-11T04:41:36;9.57;;;6.73;;
4686;SDS011;2357;47.316;-1.348;2023-02-11T04:44:02;7.40;;;6.70;;
4686;SDS011;2357;47.316;-1.348;2023-02-11T04:46:28;9.27;;;6.70;;
4686;SDS011;2357;47.316;-1.348;2023-02-11T04:48:54;8.37;;;6.47;;
4686;SDS011;2357;47.316;-1.348;2023-02-11T04:51:20;7.03;;;5.80;;
4686;SDS011;2357;47.316;-1.348;2023-02-11T04:53:46;10.03;;;6.83;;
4686;SDS011;2357;47.316;-1.348;2023-02-11T04:56:12;8.17;;;6.00;;
4686;SDS011;2357;47.316;-1.348;2023-02-11T04:58:37;10.87;;;6.10;;
4686;SDS011;2357;47.316;-1.348;2023-02-11T05:01:04;9.30;;;5.90;;
4686;SDS011;2357;47.316;-1.348;2023-02-11T05:03:37;8.60;;;6.13;;
4686;SDS011;2357;47.316;-1.348;2023-02-11T05:06:03;7.40;;;6.47;;
4686;SDS011;2357;47.316;-1.348;2023-02-11T05:08:30;6.80;;;5.90;;
4686;SDS011;2357;47.316;-1.348;2023-02-11T05:10:56;7.47;;;6.17;;
4686;SDS011;2357;47.316;-1.348;2023-02-11T05:13:21;9.47;;;6.70;;
4686;SDS011;2357;47.316;-1.348;2023-02-11T05:15:47;8.87;;;6.10;;
4686;SDS011;2357;47.316;-1.348;2023-02-11T05:18:13;8.87;;;6.43;;
4686;SDS011;2357;47.316;-1.348;2023-02-11T05:20:39;9.33;;;6.03;;
4686;SDS011;2357;47.316;-1.348;2023-02-11T05:23:06;12.67;;;6.83;;
4686;SDS011;2357;47.316;-1.348;2023-02-11T05:25:31;10.53;;;7.63;;
4686;SDS011;2357;47.316;-1.348;2023-02-11T05:27:57;10.77;;;7.90;;
4686;SDS011;2357;47.316;-1.348;2023-02-11T05:30:23;9.93;;;8.37;;
4686;SDS011;2357;47.316;-1.348;2023-02-11T05:32:48;11.40;;;8.57;;
4686;SDS011;2357;47.316;-1.348;2023-02-11T05:35:14;14.80;;;8.20;;
4686;SDS011;2357;47.316;-1.348;2023-02-11T05:37:40;13.83;;;9.20;;
4686;SDS011;2357;47.316;-1.348;2023-02-11T05:40:06;14.60;;;10.30;;
4686;SDS011;2357;47.316;-1.348;2023-02-11T05:42:31;24.67;;;12.00;;
4686;SDS011;2357;47.316;-1.348;2023-02-11T05:44:57;16.50;;;10.10;;
4686;SDS011;2357;47.316;-1.348;2023-02-11T05:47:23;23.20;;;10.97;;
4686;SDS011;2357;47.316;-1.348;2023-02-11T05:49:48;17.40;;;11.63;;
4686;SDS011;2357;47.316;-1.348;2023-02-11T05:52:15;16.97;;;11.30;;
4686;SDS011;2357;47.316;-1.348;2023-02-11T05:54:40;17.13;;;11.60;;
4686;SDS011;2357;47.316;-1.348;2023-02-11T05:57:06;16.93;;;11.67;;
4686;SDS011;2357;47.316;-1.348;2023-02-11T05:59:32;19.70;;;12.37;;
4686;SDS011;2357;47.316;-1.348;2023-02-11T06:01:57;17.47;;;11.50;;
4686;SDS011;2357;47.316;-1.348;2023-02-11T06:04:23;16.83;;;11.00;;
4686;SDS011;2357;47.316;-1.348;2023-02-11T06:06:48;23.03;;;11.97;;
4686;SDS011;2357;47.316;-1.348;2023-02-11T06:09:14;19.20;;;10.90;;
4686;SDS011;2357;47.316;-1.348;2023-02-11T06:11:40;14.70;;;10.97;;
4686;SDS011;2357;47.316;-1.348;2023-02-11T06:14:05;15.77;;;12.00;;
4686;SDS011;2357;47.316;-1.348;2023-02-11T06:16:31;16.03;;;11.30;;
4686;SDS011;2357;47.316;-1.348;2023-02-11T06:18:56;16.73;;;12.10;;
4686;SDS011;2357;47.316;-1.348;2023-02-11T06:21:22;17.17;;;11.83;;
4686;SDS011;2357;47.316;-1.348;2023-02-11T06:23:48;16.00;;;12.27;;
4686;SDS011;2357;47.316;-1.348;2023-02-11T06:26:18;17.47;;;13.03;;
4686;SDS011;2357;47.316;-1.348;2023-02-11T06:28:45;17.47;;;12.10;;
4686;SDS011;2357;47.316;-1.348;2023-02-11T06:31:11;17.03;;;11.47;;
4686;SDS011;2357;47.316;-1.348;2023-02-11T06:33:37;22.50;;;11.00;;
4686;SDS011;2357;47.316;-1.348;2023-02-11T06:36:04;29.33;;;12.33;;
4686;SDS011;2357;47.316;-1.348;2023-02-11T06:38:37;18.70;;;13.10;;
4686;SDS011;2357;47.316;-1.348;2023-02-11T06:41:02;18.10;;;12.90;;
4686;SDS011;2357;47.316;-1.348;2023-02-11T06:43:28;17.00;;;12.13;;
4686;SDS011;2357;47.316;-1.348;2023-02-11T06:45:54;20.90;;;12.60;;
4686;SDS011;2357;47.316;-1.348;2023-02-11T06:48:20;19.87;;;11.97;;
4686;SDS011;2357;47.316;-1.348;2023-02-11T06:50:46;15.50;;;11.23;;
4686;SDS011;2357;47.316;-1.348;2023-02-11T06:53:12;16.43;;;11.27;;
4686;SDS011;2357;47.316;-1.348;2023-02-11T06:55:37;21.87;;;12.50;;
4686;SDS011;2357;47.316;-1.348;2023-02-11T06:58:03;19.07;;;11.67;;
4686;SDS011;2357;47.316;-1.348;2023-02-11T07:00:29;25.60;;;10.70;;
4686;SDS011;2357;47.316;-1.348;2023-02-11T07:02:55;21.27;;;11.90;;
4686;SDS011;2357;47.316;-1.348;2023-02-11T07:05:21;15.83;;;10.83;;
4686;SDS011;2357;47.316;-1.348;2023-02-11T07:07:46;17.40;;;11.97;;
4686;SDS011;2357;47.316;-1.348;2023-02-11T07:10:12;20.07;;;13.80;;
4686;SDS011;2357;47.316;-1.348;2023-02-11T07:12:37;18.37;;;12.80;;
4686;SDS011;2357;47.316;-1.348;2023-02-11T07:15:03;19.07;;;12.60;;
4686;SDS011;2357;47.316;-1.348;2023-02-11T07:17:30;18.50;;;12.70;;
4686;SDS011;2357;47.316;-1.348;2023-02-11T07:19:55;19.27;;;12.93;;
4686;SDS011;2357;47.316;-1.348;2023-02-11T07:22:21;18.63;;;12.80;;
4686;SDS011;2357;47.316;-1.348;2023-02-11T07:24:47;21.00;;;12.60;;
4686;SDS011;2357;47.316;-1.348;2023-02-11T07:27:13;18.50;;;12.00;;
4686;SDS011;2357;47.316;-1.348;2023-02-11T07:29:40;17.43;;;11.87;;
4686;SDS011;2357;47.316;-1.348;2023-02-11T07:32:06;24.40;;;13.10;;
4686;SDS011;2357;47.316;-1.348;2023-02-11T07:34:32;18.63;;;12.10;;
4686;SDS011;2357;47.316;-1.348;2023-02-11T07:36:58;17.23;;;12.30;;
4686;SDS011;2357;47.316;-1.348;2023-02-11T07:39:23;20.60;;;12.70;;
4686;SDS011;2357;47.316;-1.348;2023-02-11T07:41:51;21.43;;;12.50;;
4686;SDS011;2357;47.316;-1.348;2023-02-11T07:44:17;16.97;;;13.53;;
4686;SDS011;2357;47.316;-1.348;2023-02-11T07:46:43;22.47;;;14.30;;
4686;SDS011;2357;47.316;-1.348;2023-02-11T07:49:09;19.60;;;13.63;;
4686;SDS011;2357;47.316;-1.348;2023-02-11T07:51:36;23.93;;;15.03;;
4686;SDS011;2357;47.316;-1.348;2023-02-11T07:54:02;21.80;;;15.27;;
4686;SDS011;2357;47.316;-1.348;2023-02-11T07:56:28;20.20;;;13.30;;
4686;SDS011;2357;47.316;-1.348;2023-02-11T07:58:54;23.73;;;13.80;;
4686;SDS011;2357;47.316;-1.348;2023-02-11T08:01:24;21.50;;;14.33;;
4686;SDS011;2357;47.316;-1.348;2023-02-11T08:03:52;20.60;;;14.67;;
4686;SDS011;2357;47.316;-1.348;2023-02-11T08:06:19;23.90;;;13.30;;
4686;SDS011;2357;47.316;-1.348;2023-02-11T08:08:46;23.10;;;15.10;;
4686;SDS011;2357;47.316;-1.348;2023-02-11T08:11:14;22.20;;;14.00;;
4686;SDS011;2357;47.316;-1.348;2023-02-11T08:13:41;24.90;;;15.93;;
4686;SDS011;2357;47.316;-1.348;2023-02-11T08:16:07;25.10;;;15.80;;
4686;SDS011;2357;47.316;-1.348;2023-02-11T08:18:33;24.10;;;16.30;;
4686;SDS011;2357;47.316;-1.348;2023-02-11T08:21:03;28.80;;;17.47;;
4686;SDS011;2357;47.316;-1.348;2023-02-11T08:23:30;25.53;;;16.30;;
4686;SDS011;2357;47.316;-1.348;2023-02-11T08:25:59;27.10;;;18.13;;
4686;SDS011;2357;47.316;-1.348;2023-02-11T08:28:26;26.83;;;17.57;;
4686;SDS011;2357;47.316;-1.348;2023-02-11T08:30:52;28.23;;;18.07;;
4686;SDS011;2357;47.316;-1.348;2023-02-11T08:33:17;26.20;;;18.00;;
4686;SDS011;2357;47.316;-1.348;2023-02-11T08:35:43;31.63;;;18.70;;
4686;SDS011;2357;47.316;-1.348;2023-02-11T08:38:09;24.57;;;16.80;;
4686;SDS011;2357;47.316;-1.348;2023-02-11T08:40:34;30.90;;;17.30;;
4686;SDS011;2357;47.316;-1.348;2023-02-11T08:43:00;25.37;;;18.53;;
4686;SDS011;2357;47.316;-1.348;2023-02-11T08:45:26;27.10;;;18.00;;
4686;SDS011;2357;47.316;-1.348;2023-02-11T08:47:51;27.60;;;19.60;;
4686;SDS011;2357;47.316;-1.348;2023-02-11T08:50:17;39.57;;;20.63;;
4686;SDS011;2357;47.316;-1.348;2023-02-11T08:52:43;36.30;;;18.77;;
4686;SDS011;2357;47.316;-1.348;2023-02-11T08:55:08;29.43;;;20.17;;
4686;SDS011;2357;47.316;-1.348;2023-02-11T08:57:34;31.90;;;20.10;;
4686;SDS011;2357;47.316;-1.348;2023-02-11T09:00:00;32.37;;;19.13;;
4686;SDS011;2357;47.316;-1.348;2023-02-11T09:02:25;32.83;;;20.50;;
4686;SDS011;2357;47.316;-1.348;2023-02-11T09:04:51;33.73;;;19.57;;
4686;SDS011;2357;47.316;-1.348;2023-02-11T09:07:17;29.10;;;20.30;;
4686;SDS011;2357;47.316;-1.348;2023-02-11T09:09:42;34.13;;;21.83;;
4686;SDS011;2357;47.316;-1.348;2023-02-11T09:12:08;37.40;;;22.00;;
4686;SDS011;2357;47.316;-1.348;2023-02-11T09:14:34;32.17;;;20.67;;
4686;SDS011;2357;47.316;-1.348;2023-02-11T09:16:59;30.60;;;19.90;;
4686;SDS011;2357;47.316;-1.348;2023-02-11T09:19:25;28.10;;;19.20;;
4686;SDS011;2357;47.316;-1.348;2023-02-11T09:21:50;36.37;;;21.80;;
4686;SDS011;2357;47.316;-1.348;2023-02-11T09:24:16;30.30;;;20.40;;
4686;SDS011;2357;47.316;-1.348;2023-02-11T09:26:42;33.70;;;20.47;;
4686;SDS011;2357;47.316;-1.348;2023-02-11T09:29:08;34.63;;;21.93;;
4686;SDS011;2357;47.316;-1.348;2023-02-11T09:31:34;36.40;;;23.10;;
4686;SDS011;2357;47.316;-1.348;2023-02-11T09:34:01;30.93;;;19.90;;
4686;SDS011;2357;47.316;-1.348;2023-02-11T09:36:32;34.10;;;20.10;;
4686;SDS011;2357;47.316;-1.348;2023-02-11T09:39:01;33.43;;;20.30;;
4686;SDS011;2357;47.316;-1.348;2023-02-11T09:43:57;28.97;;;20.13;;
4686;SDS011;2357;47.316;-1.348;2023-02-11T09:46:33;30.83;;;19.83;;
4686;SDS011;2357;47.316;-1.348;2023-02-11T09:49:01;30.83;;;20.93;;
4686;SDS011;2357;47.316;-1.348;2023-02-11T09:51:36;32.03;;;21.47;;
4686;SDS011;2357;47.316;-1.348;2023-02-11T09:54:12;31.30;;;19.13;;
4686;SDS011;2357;47.316;-1.348;2023-02-11T09:56:52;34.30;;;19.43;;
4686;SDS011;2357;47.316;-1.348;2023-02-11T09:59:18;30.43;;;19.47;;
4686;SDS011;2357;47.316;-1.348;2023-02-11T10:01:49;32.70;;;19.87;;
4686;SDS011;2357;47.316;-1.348;2023-02-11T10:07:21;26.53;;;18.30;;
4686;SDS011;2357;47.316;-1.348;2023-02-11T10:23:47;30.87;;;17.80;;
4686;SDS011;2357;47.316;-1.348;2023-02-11T10:26:16;26.70;;;16.90;;
4686;SDS011;2357;47.316;-1.348;2023-02-11T10:28:44;30.57;;;18.13;;
4686;SDS011;2357;47.316;-1.348;2023-02-11T10:31:15;27.73;;;18.10;;
4686;SDS011;2357;47.316;-1.348;2023-02-11T10:33:53;30.83;;;16.70;;
4686;SDS011;2357;47.316;-1.348;2023-02-11T10:36:27;27.87;;;16.87;;
4686;SDS011;2357;47.316;-1.348;2023-02-11T10:39:01;27.30;;;17.30;;
4686;SDS011;2357;47.316;-1.348;2023-02-11T10:41:43;29.40;;;17.33;;
4686;SDS011;2357;47.316;-1.348;2023-02-11T10:44:20;49.43;;;18.87;;
4686;SDS011;2357;47.316;-1.348;2023-02-11T10:46:52;24.10;;;16.10;;
4686;SDS011;2357;47.316;-1.348;2023-02-11T10:52:21;26.87;;;15.40;;
4686;SDS011;2357;47.316;-1.348;2023-02-11T10:57:54;22.20;;;15.90;;
4686;SDS011;2357;47.316;-1.348;2023-02-11T11:00:56;21.87;;;14.67;;
4686;SDS011;2357;47.316;-1.348;2023-02-11T11:03:19;21.70;;;14.57;;
4686;SDS011;2357;47.316;-1.348;2023-02-11T11:05:50;25.70;;;14.90;;
4686;SDS011;2357;47.316;-1.348;2023-02-11T11:08:18;21.80;;;13.00;;
4686;SDS011;2357;47.316;-1.348;2023-02-11T11:10:46;23.17;;;12.10;;
4686;SDS011;2357;47.316;-1.348;2023-02-11T11:13:26;27.97;;;12.73;;
4686;SDS011;2357;47.316;-1.348;2023-02-11T11:16:08;20.43;;;12.10;;
4686;SDS011;2357;47.316;-1.348;2023-02-11T11:18:36;24.93;;;12.93;;
4686;SDS011;2357;47.316;-1.348;2023-02-11T11:21:10;20.27;;;11.73;;
4686;SDS011;2357;47.316;-1.348;2023-02-11T11:24:18;18.30;;;12.70;;
4686;SDS011;2357;47.316;-1.348;2023-02-11T11:26:55;22.80;;;12.30;;
4686;SDS011;2357;47.316;-1.348;2023-02-11T11:29:35;20.00;;;12.27;;
4686;SDS011;2357;47.316;-1.348;2023-02-11T11:34:37;20.63;;;11.67;;
4686;SDS011;2357;47.316;-1.348;2023-02-11T11:37:12;21.23;;;10.37;;
4686;SDS011;2357;47.316;-1.348;2023-02-11T11:39:47;23.70;;;11.10;;
4686;SDS011;2357;47.316;-1.348;2023-02-11T11:42:24;15.70;;;10.60;;
4686;SDS011;2357;47.316;-1.348;2023-02-11T11:45:02;22.10;;;10.07;;
4686;SDS011;2357;47.316;-1.348;2023-02-11T11:47:45;23.20;;;9.47;;
4686;SDS011;2357;47.316;-1.348;2023-02-11T11:50:34;16.93;;;9.50;;
4686;SDS011;2357;47.316;-1.348;2023-02-11T11:53:14;18.57;;;9.10;;
4686;SDS011;2357;47.316;-1.348;2023-02-11T11:58:35;13.30;;;9.30;;
4686;SDS011;2357;47.316;-1.348;2023-02-11T12:01:08;15.27;;;9.63;;
4686;SDS011;2357;47.316;-1.348;2023-02-11T12:06:39;18.00;;;9.67;;
4686;SDS011;2357;47.316;-1.348;2023-02-11T12:14:28;15.07;;;8.93;;
4686;SDS011;2357;47.316;-1.348;2023-02-11T12:19:53;13.73;;;9.03;;
4686;SDS011;2357;47.316;-1.348;2023-02-11T12:22:25;16.97;;;9.20;;
4686;SDS011;2357;47.316;-1.348;2023-02-11T12:27:45;15.63;;;8.53;;
4686;SDS011;2357;47.316;-1.348;2023-02-11T12:32:56;15.10;;;8.20;;
4686;SDS011;2357;47.316;-1.348;2023-02-11T12:35:40;12.30;;;7.90;;
4686;SDS011;2357;47.316;-1.348;2023-02-11T12:38:40;14.93;;;8.40;;
4686;SDS011;2357;47.316;-1.348;2023-02-11T12:41:43;13.67;;;7.90;;
4686;SDS011;2357;47.316;-1.348;2023-02-11T12:47:11;14.70;;;8.60;;
4686;SDS011;2357;47.316;-1.348;2023-02-11T12:56:04;13.00;;;7.40;;
4686;SDS011;2357;47.316;-1.348;2023-02-11T12:58:38;13.73;;;7.70;;
4686;SDS011;2357;47.316;-1.348;2023-02-11T13:01:11;12.97;;;7.40;;
4686;SDS011;2357;47.316;-1.348;2023-02-11T13:04:49;13.57;;;7.63;;
4686;SDS011;2357;47.316;-1.348;2023-02-11T13:07:01;21.30;;;8.07;;
4686;SDS011;2357;47.316;-1.348;2023-02-11T13:09:38;8.27;;;6.30;;
4686;SDS011;2357;47.316;-1.348;2023-02-11T13:12:09;10.70;;;6.80;;
4686;SDS011;2357;47.316;-1.348;2023-02-11T13:14:57;9.00;;;6.80;;
4686;SDS011;2357;47.316;-1.348;2023-02-11T13:17:47;13.00;;;6.80;;
4686;SDS011;2357;47.316;-1.348;2023-02-11T13:20:27;11.53;;;6.73;;
4686;SDS011;2357;47.316;-1.348;2023-02-11T13:23:18;8.93;;;6.10;;
4686;SDS011;2357;47.316;-1.348;2023-02-11T13:40:37;12.07;;;7.00;;
4686;SDS011;2357;47.316;-1.348;2023-02-11T13:42:56;7.93;;;7.13;;
4686;SDS011;2357;47.316;-1.348;2023-02-11T13:45:27;13.50;;;8.00;;
4686;SDS011;2357;47.316;-1.348;2023-02-11T13:48:00;15.07;;;6.60;;
4686;SDS011;2357;47.316;-1.348;2023-02-11T13:50:28;17.97;;;7.40;;
4686;SDS011;2357;47.316;-1.348;2023-02-11T13:53:01;9.40;;;6.27;;
4686;SDS011;2357;47.316;-1.348;2023-02-11T13:55:29;13.53;;;6.50;;
4686;SDS011;2357;47.316;-1.348;2023-02-11T14:08:57;14.23;;;6.40;;
4686;SDS011;2357;47.316;-1.348;2023-02-11T14:19:38;9.87;;;6.17;;
4686;SDS011;2357;47.316;-1.348;2023-02-11T14:27:14;8.43;;;5.83;;
4686;SDS011;2357;47.316;-1.348;2023-02-11T14:29:50;13.80;;;5.17;;
4686;SDS011;2357;47.316;-1.348;2023-02-11T14:38:31;7.77;;;6.10;;
4686;SDS011;2357;47.316;-1.348;2023-02-11T14:41:10;9.97;;;5.60;;
4686;SDS011;2357;47.316;-1.348;2023-02-11T14:43:46;6.83;;;5.27;;
4686;SDS011;2357;47.316;-1.348;2023-02-11T14:46:16;8.43;;;5.93;;
4686;SDS011;2357;47.316;-1.348;2023-02-11T14:48:44;8.63;;;5.63;;
4686;SDS011;2357;47.316;-1.348;2023-02-11T14:51:14;7.93;;;5.27;;
4686;SDS011;2357;47.316;-1.348;2023-02-11T14:53:48;10.37;;;5.70;;
4686;SDS011;2357;47.316;-1.348;2023-02-11T14:56:27;9.23;;;6.17;;
4686;SDS011;2357;47.316;-1.348;2023-02-11T14:58:58;13.03;;;6.77;;
4686;SDS011;2357;47.316;-1.348;2023-02-11T15:03:58;9.03;;;5.60;;
4686;SDS011;2357;47.316;-1.348;2023-02-11T15:09:00;12.37;;;6.40;;
4686;SDS011;2357;47.316;-1.348;2023-02-11T15:11:38;7.87;;;6.30;;
4686;SDS011;2357;47.316;-1.348;2023-02-11T15:14:06;10.07;;;6.20;;
4686;SDS011;2357;47.316;-1.348;2023-02-11T15:16:39;10.30;;;6.43;;
4686;SDS011;2357;47.316;-1.348;2023-02-11T15:19:10;9.60;;;5.97;;
4686;SDS011;2357;47.316;-1.348;2023-02-11T15:21:47;7.03;;;5.43;;
4686;SDS011;2357;47.316;-1.348;2023-02-11T15:24:28;10.67;;;5.90;;
4686;SDS011;2357;47.316;-1.348;2023-02-11T15:29:26;8.10;;;5.03;;
4686;SDS011;2357;47.316;-1.348;2023-02-11T15:32:02;8.33;;;5.97;;
4686;SDS011;2357;47.316;-1.348;2023-02-11T15:34:34;7.27;;;5.50;;
4686;SDS011;2357;47.316;-1.348;2023-02-11T15:37:01;12.33;;;5.60;;
4686;SDS011;2357;47.316;-1.348;2023-02-11T15:42:14;8.17;;;5.63;;
4686;SDS011;2357;47.316;-1.348;2023-02-11T15:47:51;8.50;;;4.37;;
4686;SDS011;2357;47.316;-1.348;2023-02-11T15:50:22;5.40;;;4.90;;
4686;SDS011;2357;47.316;-1.348;2023-02-11T15:52:48;8.27;;;5.43;;
4686;SDS011;2357;47.316;-1.348;2023-02-11T15:55:14;7.83;;;4.43;;
4686;SDS011;2357;47.316;-1.348;2023-02-11T15:57:42;7.87;;;5.43;;
4686;SDS011;2357;47.316;-1.348;2023-02-11T16:00:37;8.40;;;4.80;;
4686;SDS011;2357;47.316;-1.348;2023-02-11T16:03:20;5.27;;;4.37;;
4686;SDS011;2357;47.316;-1.348;2023-02-11T16:05:53;8.10;;;4.57;;
4686;SDS011;2357;47.316;-1.348;2023-02-11T16:08:25;5.07;;;4.60;;
4686;SDS011;2357;47.316;-1.348;2023-02-11T16:10:58;9.17;;;4.63;;
4686;SDS011;2357;47.316;-1.348;2023-02-11T16:13:27;7.70;;;4.77;;
4686;SDS011;2357;47.316;-1.348;2023-02-11T16:16:01;8.57;;;4.87;;
4686;SDS011;2357;47.316;-1.348;2023-02-11T16:21:04;6.90;;;5.00;;
4686;SDS011;2357;47.316;-1.348;2023-02-11T16:23:37;8.10;;;4.70;;
4686;SDS011;2357;47.316;-1.348;2023-02-11T16:26:11;6.83;;;5.23;;
4686;SDS011;2357;47.316;-1.348;2023-02-11T16:28:44;8.23;;;5.07;;
4686;SDS011;2357;47.316;-1.348;2023-02-11T16:31:10;8.40;;;4.80;;
4686;SDS011;2357;47.316;-1.348;2023-02-11T16:33:37;6.33;;;4.40;;
4686;SDS011;2357;47.316;-1.348;2023-02-11T16:36:12;7.00;;;5.00;;
4686;SDS011;2357;47.316;-1.348;2023-02-11T16:38:39;6.90;;;5.43;;
4686;SDS011;2357;47.316;-1.348;2023-02-11T16:41:04;8.10;;;4.20;;
4686;SDS011;2357;47.316;-1.348;2023-02-11T16:43:30;8.17;;;5.00;;
4686;SDS011;2357;47.316;-1.348;2023-02-11T16:45:56;7.00;;;4.27;;
4686;SDS011;2357;47.316;-1.348;2023-02-11T16:48:23;7.67;;;4.50;;
4686;SDS011;2357;47.316;-1.348;2023-02-11T16:50:49;5.70;;;4.00;;
4686;SDS011;2357;47.316;-1.348;2023-02-11T16:53:17;5.90;;;4.23;;
4686;SDS011;2357;47.316;-1.348;2023-02-11T16:55:45;7.37;;;3.83;;
4686;SDS011;2357;47.316;-1.348;2023-02-11T16:58:11;6.10;;;4.10;;
4686;SDS011;2357;47.316;-1.348;2023-02-11T17:00:36;7.73;;;4.10;;
4686;SDS011;2357;47.316;-1.348;2023-02-11T17:03:04;5.13;;;3.53;;
4686;SDS011;2357;47.316;-1.348;2023-02-11T17:05:38;6.43;;;4.20;;
4686;SDS011;2357;47.316;-1.348;2023-02-11T17:08:04;5.20;;;3.53;;
4686;SDS011;2357;47.316;-1.348;2023-02-11T17:10:30;4.30;;;3.60;;
4686;SDS011;2357;47.316;-1.348;2023-02-11T17:12:56;4.43;;;3.60;;
4686;SDS011;2357;47.316;-1.348;2023-02-11T17:15:22;6.90;;;3.63;;
4686;SDS011;2357;47.316;-1.348;2023-02-11T17:17:47;5.00;;;4.13;;
4686;SDS011;2357;47.316;-1.348;2023-02-11T17:20:13;15.93;;;4.30;;
4686;SDS011;2357;47.316;-1.348;2023-02-11T17:22:39;7.10;;;4.80;;
4686;SDS011;2357;47.316;-1.348;2023-02-11T17:25:05;6.20;;;4.60;;
4686;SDS011;2357;47.316;-1.348;2023-02-11T17:27:31;5.50;;;4.33;;
4686;SDS011;2357;47.316;-1.348;2023-02-11T17:29:57;10.20;;;5.33;;
4686;SDS011;2357;47.316;-1.348;2023-02-11T17:32:22;10.83;;;6.10;;
4686;SDS011;2357;47.316;-1.348;2023-02-11T17:34:48;11.60;;;7.00;;